sensor_id;sensor_type;location;lat;lon;timestamp;temperature;humidity
73360;DHT22;63092;43.582;19.528;2022-09-30T00:01:17;15.50;86.80
73360;DHT22;63092;43.582;19.528;2022-09-30T00:03:43;15.40;86.60
73360;DHT22;63092;43.582;19.528;2022-09-30T00:06:10;15.50;86.50
73360;DHT22;63092;43.582;19.528;2022-09-30T00:08:36;15.50;86.50
73360;DHT22;63092;43.582;19.528;2022-09-30T00:11:11;15.60;86.40
73360;DHT22;63092;43.582;19.528;2022-09-30T00:13:45;15.60;86.30
73360;DHT22;63092;43.582;19.528;2022-09-30T00:16:13;15.60;86.10
73360;DHT22;63092;43.582;19.528;2022-09-30T00:18:40;15.50;86.30
73360;DHT22;63092;43.582;19.528;2022-09-30T00:21:07;15.50;86.30
73360;DHT22;63092;43.582;19.528;2022-09-30T00:23:33;15.50;86.30
73360;DHT22;63092;43.582;19.528;2022-09-30T00:26:02;15.40;86.80
73360;DHT22;63092;43.582;19.528;2022-09-30T00:28:29;15.30;87.00
73360;DHT22;63092;43.582;19.528;2022-09-30T00:31:03;15.30;87.20
73360;DHT22;63092;43.582;19.528;2022-09-30T00:33:32;15.20;87.50
73360;DHT22;63092;43.582;19.528;2022-09-30T00:35:58;15.30;87.50
73360;DHT22;63092;43.582;19.528;2022-09-30T00:38:24;15.30;87.50
73360;DHT22;63092;43.582;19.528;2022-09-30T00:40:50;15.30;87.30
73360;DHT22;63092;43.582;19.528;2022-09-30T00:46:02;15.30;87.40
73360;DHT22;63092;43.582;19.528;2022-09-30T00:48:36;15.30;87.30
73360;DHT22;63092;43.582;19.528;2022-09-30T00:51:03;15.40;87.10
73360;DHT22;63092;43.582;19.528;2022-09-30T00:53:45;15.20;88.10
73360;DHT22;63092;43.582;19.528;2022-09-30T00:56:17;15.10;88.30
73360;DHT22;63092;43.582;19.528;2022-09-30T01:01:42;15.20;88.70
73360;DHT22;63092;43.582;19.528;2022-09-30T01:04:11;15.20;88.20
73360;DHT22;63092;43.582;19.528;2022-09-30T01:06:39;15.10;88.50
73360;DHT22;63092;43.582;19.528;2022-09-30T01:09:05;15.10;88.50
73360;DHT22;63092;43.582;19.528;2022-09-30T01:11:31;15.20;88.30
73360;DHT22;63092;43.582;19.528;2022-09-30T01:14:01;15.20;88.20
73360;DHT22;63092;43.582;19.528;2022-09-30T01:19:26;15.20;88.70
73360;DHT22;63092;43.582;19.528;2022-09-30T01:24:38;15.10;98.00
73360;DHT22;63092;43.582;19.528;2022-09-30T01:32:43;15.10;93.10
73360;DHT22;63092;43.582;19.528;2022-09-30T01:35:20;15.20;92.70
73360;DHT22;63092;43.582;19.528;2022-09-30T01:48:54;15.30;91.70
73360;DHT22;63092;43.582;19.528;2022-09-30T01:54:34;14.90;95.40
73360;DHT22;63092;43.582;19.528;2022-09-30T01:57:22;14.90;91.10
73360;DHT22;63092;43.582;19.528;2022-09-30T01:59:56;14.90;93.60
73360;DHT22;63092;43.582;19.528;2022-09-30T02:02:29;15.00;96.80
73360;DHT22;63092;43.582;19.528;2022-09-30T02:07:38;14.90;90.60
73360;DHT22;63092;43.582;19.528;2022-09-30T02:10:47;14.90;90.50
73360;DHT22;63092;43.582;19.528;2022-09-30T02:15:56;14.90;90.30
73360;DHT22;63092;43.582;19.528;2022-09-30T02:18:29;15.10;90.20
73360;DHT22;63092;43.582;19.528;2022-09-30T02:21:01;15.00;90.30
73360;DHT22;63092;43.582;19.528;2022-09-30T02:23:33;15.00;90.40
73360;DHT22;63092;43.582;19.528;2022-09-30T02:26:11;15.00;90.40
73360;DHT22;63092;43.582;19.528;2022-09-30T02:28:42;15.10;90.20
73360;DHT22;63092;43.582;19.528;2022-09-30T02:31:11;15.10;90.10
73360;DHT22;63092;43.582;19.528;2022-09-30T02:33:52;15.20;90.10
73360;DHT22;63092;43.582;19.528;2022-09-30T02:39:24;15.20;90.10
73360;DHT22;63092;43.582;19.528;2022-09-30T02:41:56;15.30;89.80
73360;DHT22;63092;43.582;19.528;2022-09-30T02:44:25;15.20;89.90
73360;DHT22;63092;43.582;19.528;2022-09-30T02:47:43;15.20;90.10
73360;DHT22;63092;43.582;19.528;2022-09-30T03:00:37;14.90;90.60
73360;DHT22;63092;43.582;19.528;2022-09-30T03:03:20;14.90;90.90
73360;DHT22;63092;43.582;19.528;2022-09-30T03:05:48;14.80;90.80
73360;DHT22;63092;43.582;19.528;2022-09-30T03:08:15;14.80;90.70
73360;DHT22;63092;43.582;19.528;2022-09-30T03:10:41;14.80;90.70
73360;DHT22;63092;43.582;19.528;2022-09-30T03:24:56;14.50;91.10
73360;DHT22;63092;43.582;19.528;2022-09-30T03:27:45;14.30;91.30
73360;DHT22;63092;43.582;19.528;2022-09-30T03:30:15;14.20;91.30
73360;DHT22;63092;43.582;19.528;2022-09-30T03:33:21;14.10;91.30
73360;DHT22;63092;43.582;19.528;2022-09-30T03:44:01;13.80;92.00
73360;DHT22;63092;43.582;19.528;2022-09-30T03:46:39;13.80;92.10
73360;DHT22;63092;43.582;19.528;2022-09-30T03:49:09;13.80;92.10
73360;DHT22;63092;43.582;19.528;2022-09-30T03:51:39;13.80;91.90
73360;DHT22;63092;43.582;19.528;2022-09-30T03:54:09;13.80;92.10
73360;DHT22;63092;43.582;19.528;2022-09-30T03:56:37;13.80;92.00
73360;DHT22;63092;43.582;19.528;2022-09-30T03:59:12;13.70;92.10
73360;DHT22;63092;43.582;19.528;2022-09-30T04:01:41;13.70;92.10
73360;DHT22;63092;43.582;19.528;2022-09-30T04:04:07;13.80;92.00
73360;DHT22;63092;43.582;19.528;2022-09-30T04:06:33;13.80;92.10
73360;DHT22;63092;43.582;19.528;2022-09-30T04:08:59;13.80;92.20
73360;DHT22;63092;43.582;19.528;2022-09-30T04:11:25;13.80;92.20
73360;DHT22;63092;43.582;19.528;2022-09-30T04:13:50;13.90;92.00
73360;DHT22;63092;43.582;19.528;2022-09-30T04:16:16;14.00;91.80
73360;DHT22;63092;43.582;19.528;2022-09-30T04:18:42;14.20;91.80
73360;DHT22;63092;43.582;19.528;2022-09-30T04:21:09;14.20;91.50
73360;DHT22;63092;43.582;19.528;2022-09-30T04:23:37;14.30;91.20
73360;DHT22;63092;43.582;19.528;2022-09-30T04:26:08;14.30;91.10
73360;DHT22;63092;43.582;19.528;2022-09-30T04:28:34;14.40;91.10
73360;DHT22;63092;43.582;19.528;2022-09-30T04:31:02;14.30;91.20
73360;DHT22;63092;43.582;19.528;2022-09-30T04:33:28;14.30;91.30
73360;DHT22;63092;43.582;19.528;2022-09-30T04:35:55;14.20;91.40
73360;DHT22;63092;43.582;19.528;2022-09-30T04:38:22;14.10;91.50
73360;DHT22;63092;43.582;19.528;2022-09-30T04:40:49;14.10;91.50
73360;DHT22;63092;43.582;19.528;2022-09-30T04:43:18;14.10;91.50
73360;DHT22;63092;43.582;19.528;2022-09-30T04:45:45;14.20;91.60
73360;DHT22;63092;43.582;19.528;2022-09-30T04:48:12;14.10;91.60
73360;DHT22;63092;43.582;19.528;2022-09-30T04:50:38;14.00;91.90
73360;DHT22;63092;43.582;19.528;2022-09-30T04:53:04;14.00;92.00
73360;DHT22;63092;43.582;19.528;2022-09-30T04:55:30;14.10;91.90
73360;DHT22;63092;43.582;19.528;2022-09-30T04:57:56;14.10;91.80
73360;DHT22;63092;43.582;19.528;2022-09-30T05:00:22;14.20;91.70
73360;DHT22;63092;43.582;19.528;2022-09-30T05:02:49;14.30;91.60
73360;DHT22;63092;43.582;19.528;2022-09-30T05:05:15;14.40;91.30
73360;DHT22;63092;43.582;19.528;2022-09-30T05:07:42;14.30;91.40
73360;DHT22;63092;43.582;19.528;2022-09-30T05:10:08;14.40;91.50
73360;DHT22;63092;43.582;19.528;2022-09-30T05:12:38;14.50;91.20
73360;DHT22;63092;43.582;19.528;2022-09-30T05:15:08;14.60;90.90
73360;DHT22;63092;43.582;19.528;2022-09-30T05:17:34;14.70;90.90
73360;DHT22;63092;43.582;19.528;2022-09-30T05:20:00;14.70;90.70
73360;DHT22;63092;43.582;19.528;2022-09-30T05:22:27;14.80;90.60
73360;DHT22;63092;43.582;19.528;2022-09-30T05:24:53;14.90;90.60
73360;DHT22;63092;43.582;19.528;2022-09-30T05:27:21;14.90;90.60
73360;DHT22;63092;43.582;19.528;2022-09-30T05:29:47;14.90;90.80
73360;DHT22;63092;43.582;19.528;2022-09-30T05:32:13;14.80;90.80
73360;DHT22;63092;43.582;19.528;2022-09-30T05:34:38;14.80;90.90
73360;DHT22;63092;43.582;19.528;2022-09-30T05:37:05;14.70;91.20
73360;DHT22;63092;43.582;19.528;2022-09-30T05:39:31;14.60;91.20
73360;DHT22;63092;43.582;19.528;2022-09-30T05:41:58;14.70;91.30
73360;DHT22;63092;43.582;19.528;2022-09-30T05:44:24;14.70;91.10
73360;DHT22;63092;43.582;19.528;2022-09-30T05:46:50;14.70;90.90
73360;DHT22;63092;43.582;19.528;2022-09-30T05:49:15;14.80;90.90
73360;DHT22;63092;43.582;19.528;2022-09-30T05:51:41;14.80;90.80
73360;DHT22;63092;43.582;19.528;2022-09-30T05:54:09;14.80;90.80
73360;DHT22;63092;43.582;19.528;2022-09-30T05:56:35;14.80;90.90
73360;DHT22;63092;43.582;19.528;2022-09-30T05:59:05;14.90;90.70
73360;DHT22;63092;43.582;19.528;2022-09-30T06:01:31;14.90;90.80
73360;DHT22;63092;43.582;19.528;2022-09-30T06:03:57;14.90;90.80
73360;DHT22;63092;43.582;19.528;2022-09-30T06:06:22;14.90;90.70
73360;DHT22;63092;43.582;19.528;2022-09-30T06:08:49;14.90;90.80
73360;DHT22;63092;43.582;19.528;2022-09-30T06:11:17;14.90;90.80
73360;DHT22;63092;43.582;19.528;2022-09-30T06:13:44;15.00;90.70
73360;DHT22;63092;43.582;19.528;2022-09-30T06:16:11;15.00;90.70
73360;DHT22;63092;43.582;19.528;2022-09-30T06:18:38;15.10;90.60
73360;DHT22;63092;43.582;19.528;2022-09-30T06:21:06;15.10;90.50
73360;DHT22;63092;43.582;19.528;2022-09-30T06:23:34;15.10;90.60
73360;DHT22;63092;43.582;19.528;2022-09-30T06:26:01;15.10;90.60
73360;DHT22;63092;43.582;19.528;2022-09-30T06:28:27;15.20;90.60
73360;DHT22;63092;43.582;19.528;2022-09-30T06:30:53;15.20;90.40
73360;DHT22;63092;43.582;19.528;2022-09-30T06:33:20;15.40;90.30
73360;DHT22;63092;43.582;19.528;2022-09-30T06:35:46;15.50;90.00
73360;DHT22;63092;43.582;19.528;2022-09-30T06:38:13;15.60;90.10
73360;DHT22;63092;43.582;19.528;2022-09-30T06:40:44;15.70;89.80
73360;DHT22;63092;43.582;19.528;2022-09-30T06:43:11;15.70;89.50
73360;DHT22;63092;43.582;19.528;2022-09-30T06:45:37;15.80;89.10
73360;DHT22;63092;43.582;19.528;2022-09-30T06:48:04;15.90;88.80
73360;DHT22;63092;43.582;19.528;2022-09-30T06:50:31;16.00;88.50
73360;DHT22;63092;43.582;19.528;2022-09-30T06:52:58;16.10;88.00
73360;DHT22;63092;43.582;19.528;2022-09-30T06:55:26;16.30;87.70
73360;DHT22;63092;43.582;19.528;2022-09-30T06:57:52;16.30;87.30
73360;DHT22;63092;43.582;19.528;2022-09-30T07:00:19;16.30;87.00
73360;DHT22;63092;43.582;19.528;2022-09-30T07:02:44;16.30;87.30
73360;DHT22;63092;43.582;19.528;2022-09-30T07:05:10;16.30;87.80
73360;DHT22;63092;43.582;19.528;2022-09-30T07:07:36;16.40;88.20
73360;DHT22;63092;43.582;19.528;2022-09-30T07:10:02;16.40;87.90
73360;DHT22;63092;43.582;19.528;2022-09-30T07:12:28;16.40;87.80
73360;DHT22;63092;43.582;19.528;2022-09-30T07:14:54;16.40;87.80
73360;DHT22;63092;43.582;19.528;2022-09-30T07:17:24;16.30;88.00
73360;DHT22;63092;43.582;19.528;2022-09-30T07:19:50;16.40;88.50
73360;DHT22;63092;43.582;19.528;2022-09-30T07:22:17;16.50;88.30
73360;DHT22;63092;43.582;19.528;2022-09-30T07:24:53;16.60;88.10
73360;DHT22;63092;43.582;19.528;2022-09-30T07:27:19;16.70;87.10
73360;DHT22;63092;43.582;19.528;2022-09-30T07:29:46;16.90;86.90
73360;DHT22;63092;43.582;19.528;2022-09-30T07:32:12;17.10;86.10
73360;DHT22;63092;43.582;19.528;2022-09-30T07:34:40;17.20;86.30
73360;DHT22;63092;43.582;19.528;2022-09-30T07:37:09;17.40;85.30
73360;DHT22;63092;43.582;19.528;2022-09-30T07:39:35;17.60;84.30
73360;DHT22;63092;43.582;19.528;2022-09-30T07:42:01;17.80;83.80
73360;DHT22;63092;43.582;19.528;2022-09-30T07:44:29;17.90;83.20
73360;DHT22;63092;43.582;19.528;2022-09-30T07:46:54;18.00;83.10
73360;DHT22;63092;43.582;19.528;2022-09-30T07:49:21;18.20;83.10
73360;DHT22;63092;43.582;19.528;2022-09-30T07:51:50;18.30;82.70
73360;DHT22;63092;43.582;19.528;2022-09-30T07:54:19;18.40;82.40
73360;DHT22;63092;43.582;19.528;2022-09-30T07:56:47;18.50;81.60
73360;DHT22;63092;43.582;19.528;2022-09-30T07:59:13;18.70;81.50
73360;DHT22;63092;43.582;19.528;2022-09-30T08:01:39;18.90;81.10
73360;DHT22;63092;43.582;19.528;2022-09-30T08:04:07;18.90;81.10
73360;DHT22;63092;43.582;19.528;2022-09-30T08:06:43;19.10;80.90
73360;DHT22;63092;43.582;19.528;2022-09-30T08:09:11;19.30;80.60
73360;DHT22;63092;43.582;19.528;2022-09-30T08:11:38;19.40;79.20
73360;DHT22;63092;43.582;19.528;2022-09-30T08:14:04;19.50;78.40
73360;DHT22;63092;43.582;19.528;2022-09-30T08:16:30;19.60;78.00
73360;DHT22;63092;43.582;19.528;2022-09-30T08:19:00;19.60;77.90
73360;DHT22;63092;43.582;19.528;2022-09-30T08:21:27;19.60;78.70
73360;DHT22;63092;43.582;19.528;2022-09-30T08:23:53;19.80;79.10
73360;DHT22;63092;43.582;19.528;2022-09-30T08:26:19;19.90;78.20
73360;DHT22;63092;43.582;19.528;2022-09-30T08:28:46;20.10;78.80
73360;DHT22;63092;43.582;19.528;2022-09-30T08:31:15;20.20;78.70
73360;DHT22;63092;43.582;19.528;2022-09-30T08:33:42;20.30;78.30
73360;DHT22;63092;43.582;19.528;2022-09-30T08:36:13;20.40;76.90
73360;DHT22;63092;43.582;19.528;2022-09-30T08:38:40;20.60;76.70
73360;DHT22;63092;43.582;19.528;2022-09-30T08:41:24;20.70;76.40
73360;DHT22;63092;43.582;19.528;2022-09-30T08:52:22;21.40;74.20
73360;DHT22;63092;43.582;19.528;2022-09-30T08:54:51;21.50;74.30
73360;DHT22;63092;43.582;19.528;2022-09-30T08:57:18;21.60;73.70
73360;DHT22;63092;43.582;19.528;2022-09-30T08:59:50;21.80;73.90
73360;DHT22;63092;43.582;19.528;2022-09-30T09:02:33;21.80;71.30
73360;DHT22;63092;43.582;19.528;2022-09-30T09:05:04;21.60;72.40
73360;DHT22;63092;43.582;19.528;2022-09-30T09:07:54;21.80;72.60
73360;DHT22;63092;43.582;19.528;2022-09-30T09:16:05;21.40;75.60
73360;DHT22;63092;43.582;19.528;2022-09-30T09:24:00;21.00;76.10
73360;DHT22;63092;43.582;19.528;2022-09-30T09:26:29;21.20;75.70
73360;DHT22;63092;43.582;19.528;2022-09-30T09:31:47;21.40;75.90
73360;DHT22;63092;43.582;19.528;2022-09-30T09:34:13;21.60;75.50
73360;DHT22;63092;43.582;19.528;2022-09-30T09:45:40;22.20;73.70
73360;DHT22;63092;43.582;19.528;2022-09-30T09:48:11;22.30;73.70
73360;DHT22;63092;43.582;19.528;2022-09-30T09:51:05;22.50;72.50
73360;DHT22;63092;43.582;19.528;2022-09-30T09:53:50;22.70;71.00
73360;DHT22;63092;43.582;19.528;2022-09-30T09:56:19;22.70;71.70
73360;DHT22;63092;43.582;19.528;2022-09-30T09:59:15;22.60;71.10
73360;DHT22;63092;43.582;19.528;2022-09-30T10:01:45;22.60;71.80
73360;DHT22;63092;43.582;19.528;2022-09-30T10:04:21;22.70;70.90
73360;DHT22;63092;43.582;19.528;2022-09-30T10:06:56;23.00;69.60
73360;DHT22;63092;43.582;19.528;2022-09-30T10:14:40;23.60;60.70
73360;DHT22;63092;43.582;19.528;2022-09-30T10:17:19;23.70;60.00
73360;DHT22;63092;43.582;19.528;2022-09-30T10:19:54;23.80;63.80
73360;DHT22;63092;43.582;19.528;2022-09-30T10:22:29;24.30;54.30
73360;DHT22;63092;43.582;19.528;2022-09-30T10:32:27;25.20;50.50
73360;DHT22;63092;43.582;19.528;2022-09-30T10:35:03;25.40;50.60
73360;DHT22;63092;43.582;19.528;2022-09-30T10:37:29;25.40;48.90
73360;DHT22;63092;43.582;19.528;2022-09-30T10:42:32;25.60;48.80
73360;DHT22;63092;43.582;19.528;2022-09-30T10:45:19;25.70;48.40
73360;DHT22;63092;43.582;19.528;2022-09-30T10:47:49;25.80;50.00
73360;DHT22;63092;43.582;19.528;2022-09-30T10:50:20;25.70;49.80
73360;DHT22;63092;43.582;19.528;2022-09-30T10:57:51;25.60;48.90
73360;DHT22;63092;43.582;19.528;2022-09-30T11:00:24;25.40;48.20
73360;DHT22;63092;43.582;19.528;2022-09-30T11:02:56;25.20;49.10
73360;DHT22;63092;43.582;19.528;2022-09-30T11:13:50;25.60;50.10
73360;DHT22;63092;43.582;19.528;2022-09-30T11:19:29;25.20;48.90
73360;DHT22;63092;43.582;19.528;2022-09-30T11:24:49;24.80;49.20
73360;DHT22;63092;43.582;19.528;2022-09-30T11:41:18;24.40;51.60
73360;DHT22;63092;43.582;19.528;2022-09-30T11:57:31;24.90;49.40
73360;DHT22;63092;43.582;19.528;2022-09-30T12:00:05;24.80;49.90
73360;DHT22;63092;43.582;19.528;2022-09-30T12:02:45;24.70;50.00
73360;DHT22;63092;43.582;19.528;2022-09-30T12:05:35;24.70;51.50
73360;DHT22;63092;43.582;19.528;2022-09-30T12:13:23;24.70;53.00
73360;DHT22;63092;43.582;19.528;2022-09-30T12:15:53;24.70;54.10
73360;DHT22;63092;43.582;19.528;2022-09-30T12:18:26;24.70;52.80
73360;DHT22;63092;43.582;19.528;2022-09-30T12:20:57;24.80;51.40
73360;DHT22;63092;43.582;19.528;2022-09-30T12:23:35;24.80;50.30
73360;DHT22;63092;43.582;19.528;2022-09-30T12:26:04;25.00;50.20
73360;DHT22;63092;43.582;19.528;2022-09-30T12:48:08;24.90;53.00
73360;DHT22;63092;43.582;19.528;2022-09-30T12:50:53;24.80;50.40
73360;DHT22;63092;43.582;19.528;2022-09-30T12:53:34;24.70;51.30
73360;DHT22;63092;43.582;19.528;2022-09-30T12:58:42;24.80;52.20
73360;DHT22;63092;43.582;19.528;2022-09-30T13:01:17;24.90;52.70
73360;DHT22;63092;43.582;19.528;2022-09-30T13:06:22;25.10;51.00
73360;DHT22;63092;43.582;19.528;2022-09-30T13:09:15;25.00;51.10
73360;DHT22;63092;43.582;19.528;2022-09-30T13:14:33;25.20;50.40
73360;DHT22;63092;43.582;19.528;2022-09-30T13:19:43;25.20;50.50
73360;DHT22;63092;43.582;19.528;2022-09-30T13:30:39;25.80;47.60
73360;DHT22;63092;43.582;19.528;2022-09-30T13:33:39;25.80;46.90
73360;DHT22;63092;43.582;19.528;2022-09-30T13:36:06;25.80;47.10
73360;DHT22;63092;43.582;19.528;2022-09-30T13:38:40;25.80;47.00
73360;DHT22;63092;43.582;19.528;2022-09-30T13:41:21;25.80;46.50
73360;DHT22;63092;43.582;19.528;2022-09-30T13:43:58;25.70;45.80
73360;DHT22;63092;43.582;19.528;2022-09-30T13:52:07;25.50;45.90
73360;DHT22;63092;43.582;19.528;2022-09-30T13:54:42;25.40;45.80
73360;DHT22;63092;43.582;19.528;2022-09-30T13:57:18;25.40;46.80
73360;DHT22;63092;43.582;19.528;2022-09-30T14:19:30;25.00;46.50
73360;DHT22;63092;43.582;19.528;2022-09-30T14:22:02;25.00;46.00
73360;DHT22;63092;43.582;19.528;2022-09-30T14:24:31;24.90;46.50
73360;DHT22;63092;43.582;19.528;2022-09-30T14:31:52;24.80;46.80
73360;DHT22;63092;43.582;19.528;2022-09-30T14:34:20;24.80;45.90
73360;DHT22;63092;43.582;19.528;2022-09-30T14:36:47;24.80;46.50
73360;DHT22;63092;43.582;19.528;2022-09-30T14:39:25;24.70;46.80
73360;DHT22;63092;43.582;19.528;2022-09-30T14:41:58;24.80;47.00
73360;DHT22;63092;43.582;19.528;2022-09-30T14:44:29;24.70;46.80
73360;DHT22;63092;43.582;19.528;2022-09-30T14:46:58;24.70;46.40
73360;DHT22;63092;43.582;19.528;2022-09-30T14:49:29;24.70;45.80
73360;DHT22;63092;43.582;19.528;2022-09-30T14:52:01;24.70;46.30
73360;DHT22;63092;43.582;19.528;2022-09-30T14:54:30;24.60;46.20
73360;DHT22;63092;43.582;19.528;2022-09-30T14:56:58;24.60;46.60
73360;DHT22;63092;43.582;19.528;2022-09-30T15:01:58;24.50;46.80
73360;DHT22;63092;43.582;19.528;2022-09-30T15:04:51;24.40;47.20
73360;DHT22;63092;43.582;19.528;2022-09-30T15:07:18;24.40;46.90
73360;DHT22;63092;43.582;19.528;2022-09-30T15:09:46;24.40;47.10
73360;DHT22;63092;43.582;19.528;2022-09-30T15:12:15;24.30;47.60
73360;DHT22;63092;43.582;19.528;2022-09-30T15:17:20;24.20;48.10
73360;DHT22;63092;43.582;19.528;2022-09-30T15:19:46;24.20;48.20
73360;DHT22;63092;43.582;19.528;2022-09-30T15:22:13;24.20;48.80
73360;DHT22;63092;43.582;19.528;2022-09-30T15:24:40;24.10;49.10
73360;DHT22;63092;43.582;19.528;2022-09-30T15:27:20;24.10;49.70
73360;DHT22;63092;43.582;19.528;2022-09-30T15:29:57;24.00;50.20
73360;DHT22;63092;43.582;19.528;2022-09-30T15:32:26;23.90;50.50
73360;DHT22;63092;43.582;19.528;2022-09-30T15:34:53;23.90;51.00
73360;DHT22;63092;43.582;19.528;2022-09-30T15:37:25;23.80;50.80
73360;DHT22;63092;43.582;19.528;2022-09-30T15:39:58;23.80;51.60
73360;DHT22;63092;43.582;19.528;2022-09-30T15:42:56;23.80;51.10
73360;DHT22;63092;43.582;19.528;2022-09-30T15:45:38;23.70;51.30
73360;DHT22;63092;43.582;19.528;2022-09-30T15:50:49;23.60;51.50
73360;DHT22;63092;43.582;19.528;2022-09-30T15:53:22;23.60;51.90
73360;DHT22;63092;43.582;19.528;2022-09-30T15:55:50;23.60;52.20
73360;DHT22;63092;43.582;19.528;2022-09-30T16:00:52;23.50;52.30
73360;DHT22;63092;43.582;19.528;2022-09-30T16:03:30;23.50;51.90
73360;DHT22;63092;43.582;19.528;2022-09-30T16:06:35;23.50;52.30
73360;DHT22;63092;43.582;19.528;2022-09-30T16:09:07;23.40;52.40
73360;DHT22;63092;43.582;19.528;2022-09-30T16:11:42;23.40;52.00
73360;DHT22;63092;43.582;19.528;2022-09-30T16:14:20;23.30;52.40
73360;DHT22;63092;43.582;19.528;2022-09-30T16:16:51;23.30;52.60
73360;DHT22;63092;43.582;19.528;2022-09-30T16:19:18;23.20;52.80
73360;DHT22;63092;43.582;19.528;2022-09-30T16:21:49;23.20;52.90
73360;DHT22;63092;43.582;19.528;2022-09-30T16:26:55;23.10;54.20
73360;DHT22;63092;43.582;19.528;2022-09-30T16:29:22;23.10;53.50
73360;DHT22;63092;43.582;19.528;2022-09-30T16:31:51;23.00;53.80
73360;DHT22;63092;43.582;19.528;2022-09-30T16:34:28;23.00;53.20
73360;DHT22;63092;43.582;19.528;2022-09-30T16:37:03;22.90;55.50
73360;DHT22;63092;43.582;19.528;2022-09-30T16:39:30;22.90;55.30
73360;DHT22;63092;43.582;19.528;2022-09-30T16:41:55;22.90;56.10
73360;DHT22;63092;43.582;19.528;2022-09-30T16:44:21;22.80;55.60
73360;DHT22;63092;43.582;19.528;2022-09-30T16:46:49;22.70;57.20
73360;DHT22;63092;43.582;19.528;2022-09-30T16:49:18;22.60;57.80
73360;DHT22;63092;43.582;19.528;2022-09-30T16:51:44;22.60;58.10
73360;DHT22;63092;43.582;19.528;2022-09-30T16:54:10;22.50;58.40
73360;DHT22;63092;43.582;19.528;2022-09-30T16:56:36;22.40;59.10
73360;DHT22;63092;43.582;19.528;2022-09-30T16:59:02;22.20;59.80
73360;DHT22;63092;43.582;19.528;2022-09-30T17:01:28;22.10;60.50
73360;DHT22;63092;43.582;19.528;2022-09-30T17:03:56;21.90;60.50
73360;DHT22;63092;43.582;19.528;2022-09-30T17:06:28;21.90;61.20
73360;DHT22;63092;43.582;19.528;2022-09-30T17:08:54;21.80;61.90
73360;DHT22;63092;43.582;19.528;2022-09-30T17:11:25;21.70;61.80
73360;DHT22;63092;43.582;19.528;2022-09-30T17:13:52;21.70;61.60
73360;DHT22;63092;43.582;19.528;2022-09-30T17:16:18;21.60;61.90
73360;DHT22;63092;43.582;19.528;2022-09-30T17:18:43;21.60;62.00
73360;DHT22;63092;43.582;19.528;2022-09-30T17:21:09;21.50;61.80
73360;DHT22;63092;43.582;19.528;2022-09-30T17:23:35;21.40;62.30
73360;DHT22;63092;43.582;19.528;2022-09-30T17:26:06;21.30;63.20
73360;DHT22;63092;43.582;19.528;2022-09-30T17:28:32;21.20;64.10
73360;DHT22;63092;43.582;19.528;2022-09-30T17:31:01;21.20;64.30
73360;DHT22;63092;43.582;19.528;2022-09-30T17:33:31;21.20;63.90
73360;DHT22;63092;43.582;19.528;2022-09-30T17:35:59;21.00;64.40
73360;DHT22;63092;43.582;19.528;2022-09-30T17:38:25;21.00;64.20
73360;DHT22;63092;43.582;19.528;2022-09-30T17:40:50;20.90;64.40
73360;DHT22;63092;43.582;19.528;2022-09-30T17:43:34;20.80;65.30
73360;DHT22;63092;43.582;19.528;2022-09-30T17:46:00;20.70;65.40
73360;DHT22;63092;43.582;19.528;2022-09-30T17:48:26;20.60;65.90
73360;DHT22;63092;43.582;19.528;2022-09-30T17:50:51;20.40;66.80
73360;DHT22;63092;43.582;19.528;2022-09-30T17:53:19;20.50;66.70
73360;DHT22;63092;43.582;19.528;2022-09-30T17:55:47;20.50;66.60
73360;DHT22;63092;43.582;19.528;2022-09-30T17:58:14;20.50;67.00
73360;DHT22;63092;43.582;19.528;2022-09-30T18:00:44;20.30;67.40
73360;DHT22;63092;43.582;19.528;2022-09-30T18:03:12;20.40;68.00
73360;DHT22;63092;43.582;19.528;2022-09-30T18:05:37;20.40;67.80
73360;DHT22;63092;43.582;19.528;2022-09-30T18:08:03;20.40;67.80
73360;DHT22;63092;43.582;19.528;2022-09-30T18:10:30;20.10;68.70
73360;DHT22;63092;43.582;19.528;2022-09-30T18:13:06;20.20;68.50
73360;DHT22;63092;43.582;19.528;2022-09-30T18:15:31;20.10;68.80
73360;DHT22;63092;43.582;19.528;2022-09-30T18:18:00;20.10;69.20
73360;DHT22;63092;43.582;19.528;2022-09-30T18:20:26;20.10;69.40
73360;DHT22;63092;43.582;19.528;2022-09-30T18:22:52;20.00;69.30
73360;DHT22;63092;43.582;19.528;2022-09-30T18:25:17;20.10;69.60
73360;DHT22;63092;43.582;19.528;2022-09-30T18:27:52;20.00;68.90
73360;DHT22;63092;43.582;19.528;2022-09-30T18:30:21;19.90;69.60
73360;DHT22;63092;43.582;19.528;2022-09-30T18:32:48;19.80;70.50
73360;DHT22;63092;43.582;19.528;2022-09-30T18:35:14;19.90;70.70
73360;DHT22;63092;43.582;19.528;2022-09-30T18:37:43;19.90;71.00
73360;DHT22;63092;43.582;19.528;2022-09-30T18:40:12;19.90;70.60
73360;DHT22;63092;43.582;19.528;2022-09-30T18:42:41;19.80;71.00
73360;DHT22;63092;43.582;19.528;2022-09-30T18:45:07;19.70;71.00
73360;DHT22;63092;43.582;19.528;2022-09-30T18:47:36;19.60;71.60
73360;DHT22;63092;43.582;19.528;2022-09-30T18:50:05;19.50;72.20
73360;DHT22;63092;43.582;19.528;2022-09-30T18:52:31;19.50;72.20
73360;DHT22;63092;43.582;19.528;2022-09-30T18:54:57;19.50;71.90
73360;DHT22;63092;43.582;19.528;2022-09-30T18:57:23;19.50;71.90
73360;DHT22;63092;43.582;19.528;2022-09-30T18:59:49;19.50;71.90
73360;DHT22;63092;43.582;19.528;2022-09-30T19:02:14;19.40;72.10
73360;DHT22;63092;43.582;19.528;2022-09-30T19:04:42;19.30;72.10
73360;DHT22;63092;43.582;19.528;2022-09-30T19:07:08;19.20;72.70
73360;DHT22;63092;43.582;19.528;2022-09-30T19:09:34;19.20;73.20
73360;DHT22;63092;43.582;19.528;2022-09-30T19:12:00;19.00;73.80
73360;DHT22;63092;43.582;19.528;2022-09-30T19:14:26;19.00;74.10
73360;DHT22;63092;43.582;19.528;2022-09-30T19:16:55;19.00;74.10
73360;DHT22;63092;43.582;19.528;2022-09-30T19:19:20;19.00;74.20
73360;DHT22;63092;43.582;19.528;2022-09-30T19:21:47;19.00;74.20
73360;DHT22;63092;43.582;19.528;2022-09-30T19:24:13;19.00;74.30
73360;DHT22;63092;43.582;19.528;2022-09-30T19:26:41;19.00;74.30
73360;DHT22;63092;43.582;19.528;2022-09-30T19:29:09;19.00;74.60
73360;DHT22;63092;43.582;19.528;2022-09-30T19:31:35;18.90;75.10
73360;DHT22;63092;43.582;19.528;2022-09-30T19:34:02;19.00;75.00
73360;DHT22;63092;43.582;19.528;2022-09-30T19:36:28;18.90;74.90
73360;DHT22;63092;43.582;19.528;2022-09-30T19:38:57;18.90;75.10
73360;DHT22;63092;43.582;19.528;2022-09-30T19:41:25;18.90;75.30
73360;DHT22;63092;43.582;19.528;2022-09-30T19:43:50;18.90;75.10